Terminal Aerodrome Forecast
Issued by NWS Green Bay, WI

Home | Current Version | Previous Version | Graphics & Text | Print | Product List | Glossary On
Versions: 1 2 3 4 5 6 7 8 9 10 11 12 13 14 15 16 17 18 19 20 21 22 23 24
658
FTUS43 KGRB 241137
TAFGRB
TAF
KGRB 241137Z 2412/2512 19004KT P6SM SKC
     FM241700 19008KT P6SM FEW050
     FM242300 16007KT P6SM SKC=

USA.gov is the U.S. government's official web portal to all federal, state and local government web resources and services.